Time;durP1;ratioP1;P1;durP2;ratioP2;P2;SDS_P1;SDS_P2;PMS_P1;PMS_P2;Temp;Humidity;BMP_temperature;BMP_pressure;BME280_temperature;BME280_humidity;BME280_pressure;Samples;Min_cycle;Max_cycle;Signal;HPM_P1;HPM_P2
2022/06/26 00:02:25;;;;;;;12.45;11.45;;;;;;;24.52;57.05;99955.75;5032354;28;97889;-75
2022/06/26 00:04:50;;;;;;;13.45;12.13;;;;;;;24.49;57.03;99950.69;5016109;28;96564;-74
2022/06/26 00:07:16;;;;;;;13.02;11.80;;;;;;;24.50;57.11;99973.84;4999451;28;96876;-74
2022/06/26 00:09:43;;;;;;;12.75;11.07;;;;;;;24.37;57.28;99952.69;5032686;28;97446;-74
2022/06/26 00:12:08;;;;;;;12.82;11.73;;;;;;;24.49;56.97;99972.16;4999008;28;101116;-74
2022/06/26 00:14:34;;;;;;;12.40;11.05;;;;;;;24.33;57.23;99960.22;5014866;28;96687;-74
2022/06/26 00:16:59;;;;;;;12.57;11.48;;;;;;;24.32;57.67;99971.09;4999279;28;96833;-74
2022/06/26 00:19:25;;;;;;;13.35;11.90;;;;;;;24.27;57.91;99965.34;5015208;28;99979;-74
2022/06/26 00:21:51;;;;;;;17.95;12.45;;;;;;;24.20;57.88;99958.84;5032529;28;97826;-74
2022/06/26 00:24:17;;;;;;;14.00;12.15;;;;;;;24.08;58.41;99964.41;5012384;28;96690;-74
2022/06/26 00:26:42;;;;;;;12.93;11.75;;;;;;;24.03;58.10;99955.13;5010011;28;96819;-75
2022/06/26 00:29:08;;;;;;;13.88;12.48;;;;;;;24.05;58.61;99978.09;5014921;28;101635;-74
2022/06/26 00:31:33;;;;;;;13.23;12.07;;;;;;;23.98;58.86;99976.19;5024523;28;97406;-74
2022/06/26 00:33:59;;;;;;;12.90;11.90;;;;;;;24.03;58.51;99971.19;5012711;28;96788;-74
2022/06/26 00:36:24;;;;;;;13.32;12.23;;;;;;;24.00;58.49;99960.78;4988981;28;96867;-74
2022/06/26 00:38:51;;;;;;;12.98;11.70;;;;;;;24.03;58.58;99974.75;5031753;28;98304;-74
2022/06/26 00:41:16;;;;;;;14.38;12.98;;;;;;;23.89;58.68;99957.31;5016450;28;97940;-77
2022/06/26 00:43:42;;;;;;;12.75;11.80;;;;;;;23.92;58.75;99961.53;5006559;28;96730;-74
2022/06/26 00:46:08;;;;;;;13.95;12.52;;;;;;;23.68;59.67;99976.25;5018657;28;96914;-74
2022/06/26 00:48:33;;;;;;;13.45;12.13;;;;;;;23.70;59.44;99962.72;5014777;28;101116;-74
2022/06/26 00:50:59;;;;;;;13.88;12.55;;;;;;;23.85;59.16;99976.50;5014747;28;101395;-74
2022/06/26 00:53:24;;;;;;;13.57;11.65;;;;;;;23.71;59.30;99967.09;5032071;28;96687;-74
2022/06/26 00:55:50;;;;;;;12.70;11.70;;;;;;;23.79;59.17;99964.53;5033904;28;96771;-74
2022/06/26 00:58:15;;;;;;;13.15;11.98;;;;;;;23.79;59.18;99980.59;5032082;28;98063;-74
2022/06/26 01:00:41;;;;;;;13.13;12.13;;;;;;;23.76;59.33;99982.72;4997980;28;101033;-74
2022/06/26 01:03:08;;;;;;;13.50;12.43;;;;;;;23.74;59.18;99982.88;5031475;28;96587;-74
2022/06/26 01:05:33;;;;;;;13.73;12.43;;;;;;;23.63;59.16;99967.78;5014957;28;97990;-74
2022/06/26 01:07:59;;;;;;;13.55;12.35;;;;;;;23.71;59.46;99980.50;5031939;28;97581;-76
2022/06/26 01:10:25;;;;;;;13.60;12.38;;;;;;;23.65;59.31;99971.19;5014212;28;101210;-74
2022/06/26 01:12:51;;;;;;;13.13;12.02;;;;;;;23.58;59.79;99991.47;5032089;28;96804;-74
2022/06/26 01:15:17;;;;;;;14.75;13.50;;;;;;;23.61;59.67;99983.16;5031501;28;96809;-74
2022/06/26 01:17:42;;;;;;;13.55;12.35;;;;;;;23.48;59.53;99975.44;5011408;28;97939;-74
2022/06/26 01:20:12;;;;;;;13.40;12.25;;;;;;;23.57;59.61;99980.91;5012273;28;101486;-74
2022/06/26 01:22:37;;;;;;;13.60;12.30;;;;;;;23.52;59.92;99988.53;5031526;28;96636;-74
2022/06/26 01:25:03;;;;;;;13.60;12.52;;;;;;;23.48;60.09;99988.81;5015307;28;96864;-74
2022/06/26 01:27:29;;;;;;;13.55;12.25;;;;;;;23.47;59.89;99984.47;5010652;28;102220;-74
2022/06/26 01:29:56;;;;;;;13.63;12.57;;;;;;;23.46;59.99;99981.91;5007526;28;100824;-74
2022/06/26 01:32:21;;;;;;;13.60;12.55;;;;;;;23.39;nan;99986.16;5031532;28;96645;-75
2022/06/26 01:34:47;;;;;;;13.07;12.05;;;;;;;23.43;60.14;99991.06;5019229;28;96813;-75
2022/06/26 01:37:13;;;;;;;12.90;11.55;;;;;;;23.37;60.34;99982.78;4994690;28;101528;-74
2022/06/26 01:39:38;;;;;;;13.90;12.65;;;;;;;23.35;60.43;99990.94;5013947;28;101297;-74
2022/06/26 01:42:04;;;;;;;14.70;13.30;;;;;;;23.28;60.42;99987.16;5015001;28;96756;-74
2022/06/26 01:44:30;;;;;;;13.27;12.27;;;;;;;23.07;61.17;99987.31;4998217;28;96926;-74
2022/06/26 01:46:56;;;;;;;14.80;13.60;;;;;;;22.94;61.60;99992.88;5014596;28;100107;-74
2022/06/26 01:49:26;;;;;;;14.20;13.10;;;;;;;23.05;61.12;99991.94;4998163;28;100357;-74
2022/06/26 01:51:52;;;;;;;13.93;12.50;;;;;;;23.10;60.95;99988.84;5014470;28;97980;-74
2022/06/26 01:54:18;;;;;;;14.38;13.27;;;;;;;23.10;61.01;99991.53;5014685;28;97016;-74
2022/06/26 01:56:45;;;;;;;15.15;13.82;;;;;;;23.15;60.99;99991.94;5014214;28;101470;-74
2022/06/26 01:59:11;;;;;;;14.55;13.35;;;;;;;23.08;60.93;99993.50;4997498;28;101759;-74
2022/06/26 02:01:40;;;;;;;15.40;14.10;;;;;;;22.84;61.34;99967.97;5011901;28;96756;-74
2022/06/26 02:04:05;;;;;;;14.80;13.38;;;;;;;22.97;61.39;99997.16;5019512;28;96915;-74
2022/06/26 02:06:31;;;;;;;14.13;13.02;;;;;;;22.99;61.19;99997.84;5017126;28;101291;-74
2022/06/26 02:08:57;;;;;;;14.60;13.05;;;;;;;22.91;61.50;100005.69;5017705;28;101125;-74
2022/06/26 02:14:09;;;;;;;13.50;12.50;;;;;;;22.88;61.48;100008.66;5019817;28;96806;-74
2022/06/26 02:16:46;;;;;;;13.70;12.52;;;;;;;22.90;61.44;100002.19;5017333;28;101360;-74
2022/06/26 02:19:13;;;;;;;12.85;11.95;;;;;;;22.71;61.49;99978.06;5001609;28;101530;-74
2022/06/26 02:21:40;;;;;;;14.50;13.32;;;;;;;22.85;61.58;100000.91;5034078;28;97730;-74
2022/06/26 02:24:06;;;;;;;14.77;13.50;;;;;;;22.76;61.95;100002.59;4998154;28;96964;-74
2022/06/26 02:26:32;;;;;;;14.07;12.77;;;;;;;22.79;61.66;100011.19;5009729;28;100866;-74
2022/06/26 02:28:57;;;;;;;14.85;13.73;;;;;;;22.81;61.64;100022.59;5017563;28;97973;-74
2022/06/26 02:31:26;;;;;;;14.93;13.60;;;;;;;22.68;61.76;100005.94;5034092;28;96660;-74
2022/06/26 02:33:52;;;;;;;15.35;14.00;;;;;;;22.52;61.92;99986.91;5031497;28;97041;-74
2022/06/26 02:36:17;;;;;;;14.73;13.25;;;;;;;22.67;62.04;100022.13;5017627;28;98316;-74
2022/06/26 02:38:43;;;;;;;13.85;12.55;;;;;;;22.62;62.12;100022.53;5016541;28;101790;-74
2022/06/26 02:41:08;;;;;;;15.13;13.93;;;;;;;22.41;62.24;100009.25;5033807;28;96766;-74
2022/06/26 02:43:35;;;;;;;15.20;13.65;;;;;;;22.47;62.16;100006.03;5033920;28;98286;-74
2022/06/26 02:46:05;;;;;;;15.20;13.95;;;;;;;22.52;62.13;100019.00;5001738;28;101588;-74
2022/06/26 02:48:30;;;;;;;15.07;13.63;;;;;;;22.57;62.08;100027.44;5013518;28;101628;-74
2022/06/26 02:50:56;;;;;;;15.35;13.88;;;;;;;22.49;62.30;100019.28;5011364;28;96714;-74
2022/06/26 02:53:22;;;;;;;15.05;13.60;;;;;;;22.43;62.18;100019.78;5014051;28;96625;-74
2022/06/26 02:55:49;;;;;;;14.40;13.07;;;;;;;22.42;62.56;100026.97;4991364;28;102072;-74
2022/06/26 02:58:16;;;;;;;15.55;14.00;;;;;;;22.40;62.57;100039.66;5017581;28;101299;-74
2022/06/26 03:01:10;;;;;;;14.13;12.93;;;;;;;22.37;62.84;100038.09;5008040;28;96904;-74
2022/06/26 03:03:36;;;;;;;16.90;14.15;;;;;;;22.29;62.76;100027.22;5016803;28;96936;-74
2022/06/26 03:06:02;;;;;;;16.30;15.05;;;;;;;22.23;63.52;100050.97;5016381;28;101141;-74
2022/06/26 03:08:27;;;;;;;15.32;13.85;;;;;;;22.29;63.51;100053.13;5016150;28;100852;-78
2022/06/26 03:10:55;;;;;;;15.60;14.15;;;;;;;22.10;63.95;100024.41;5033806;28;96643;-74
2022/06/26 03:13:22;;;;;;;17.33;15.68;;;;;;;22.38;63.43;100045.13;5016718;28;98204;-74
2022/06/26 03:15:48;;;;;;;15.43;14.18;;;;;;;22.25;63.18;100022.25;5016398;28;101630;-74
2022/06/26 03:18:16;;;;;;;17.13;15.77;;;;;;;22.45;62.91;100044.59;5017254;28;101539;-74
2022/06/26 03:20:43;;;;;;;17.20;15.90;;;;;;;22.49;62.85;100038.00;5016661;28;96642;-74
2022/06/26 03:23:10;;;;;;;17.17;15.40;;;;;;;22.49;62.88;100048.69;5034399;28;96785;-74
2022/06/26 03:25:37;;;;;;;16.77;15.25;;;;;;;22.69;62.51;100050.44;5016059;28;101498;-74
2022/06/26 03:28:02;;;;;;;15.73;14.43;;;;;;;22.75;62.38;100054.41;5016519;28;101047;-74
2022/06/26 03:30:29;;;;;;;16.17;14.77;;;;;;;22.86;62.07;100053.44;5016358;28;96823;-74
2022/06/26 03:32:54;;;;;;;16.58;14.85;;;;;;;22.93;61.83;100046.56;5033767;28;96922;-74
2022/06/26 03:35:20;;;;;;;14.88;13.73;;;;;;;23.05;61.35;100045.47;5016416;28;101599;-74
2022/06/26 03:37:47;;;;;;;15.55;13.98;;;;;;;23.02;61.53;100051.94;5032557;28;98340;-74
2022/06/26 03:40:13;;;;;;;14.82;13.63;;;;;;;23.12;61.43;100061.81;5016782;28;96635;-74
2022/06/26 03:42:39;;;;;;;15.98;14.30;;;;;;;23.21;61.00;100052.94;4999405;28;96867;-74
2022/06/26 03:45:05;;;;;;;15.70;14.25;;;;;;;23.26;60.94;100051.53;4999618;28;101468;-74
2022/06/26 03:47:31;;;;;;;14.57;13.38;;;;;;;23.40;60.47;100057.47;5016135;28;101146;-77
2022/06/26 03:49:58;;;;;;;13.75;12.65;;;;;;;23.49;59.95;100059.31;5016450;28;96825;-74
2022/06/26 03:52:24;;;;;;;15.10;13.88;;;;;;;23.52;60.15;100050.97;5033622;28;96925;-74
2022/06/26 03:54:53;;;;;;;14.57;13.18;;;;;;;23.51;59.97;100041.25;5015532;28;100717;-74
2022/06/26 03:57:21;;;;;;;14.75;13.40;;;;;;;23.61;59.71;100041.25;5016675;28;101068;-74
2022/06/26 03:59:49;;;;;;;15.13;13.80;;;;;;;23.71;59.48;100061.72;5016070;28;96731;-74
2022/06/26 04:02:23;;;;;;;15.10;14.00;;;;;;;23.72;59.49;100055.38;5017549;28;96701;-74
2022/06/26 04:04:49;;;;;;;15.65;14.35;;;;;;;23.72;59.51;100066.09;5015360;28;101280;-74
2022/06/26 04:07:14;;;;;;;15.85;14.20;;;;;;;23.72;59.58;100033.94;5015577;28;101664;-74
2022/06/26 04:09:43;;;;;;;15.85;14.40;;;;;;;23.70;59.61;100043.09;5016257;28;96643;-74
2022/06/26 04:12:09;;;;;;;15.27;14.07;;;;;;;23.79;59.44;100052.94;5016638;28;96986;-74
2022/06/26 04:14:40;;;;;;;15.52;14.07;;;;;;;23.94;59.30;100056.06;4999709;28;101877;-74
2022/06/26 04:17:06;;;;;;;14.60;13.50;;;;;;;24.14;58.89;100056.81;5015668;28;101298;-74
2022/06/26 04:19:33;;;;;;;15.85;14.52;;;;;;;23.99;59.06;100059.13;5015558;28;96763;-78
2022/06/26 04:21:59;;;;;;;15.10;14.00;;;;;;;24.11;58.46;100049.06;5032985;28;96855;-74
2022/06/26 04:24:25;;;;;;;15.38;14.02;;;;;;;24.37;58.13;100070.72;5031486;27;101317;-74
2022/06/26 04:26:50;;;;;;;15.57;14.18;;;;;;;24.48;58.01;100085.81;5032107;28;97898;-74
2022/06/26 04:29:16;;;;;;;15.27;14.07;;;;;;;24.66;57.85;100083.19;5015763;28;96817;-74
2022/06/26 04:31:42;;;;;;;17.17;15.05;;;;;;;24.80;57.14;100088.06;5032206;28;96604;-74
2022/06/26 04:34:07;;;;;;;16.73;14.60;;;;;;;24.72;57.06;100072.69;4998857;28;101519;-74
2022/06/26 04:36:35;;;;;;;15.25;13.95;;;;;;;24.89;56.33;100087.16;5015535;28;100678;-75
2022/06/26 04:39:01;;;;;;;14.60;13.43;;;;;;;24.85;55.04;100078.56;5015868;28;96737;-74
2022/06/26 04:41:34;;;;;;;18.63;14.05;;;;;;;24.96;54.70;100082.03;5015581;28;96964;-74
2022/06/26 04:44:02;;;;;;;14.55;13.35;;;;;;;25.10;53.64;100088.72;5020984;28;101729;-74
2022/06/26 04:46:27;;;;;;;14.38;13.18;;;;;;;25.15;52.42;100073.06;5011975;28;101182;-74
2022/06/26 04:48:56;;;;;;;14.18;12.95;;;;;;;25.14;51.17;100060.63;5006503;28;96707;-74
2022/06/26 04:51:21;;;;;;;13.50;12.40;;;;;;;25.34;50.98;100053.25;5015583;28;96863;-73
2022/06/26 04:53:47;;;;;;;14.68;13.27;;;;;;;25.74;50.72;100083.19;5017133;28;101462;-74
2022/06/26 04:56:13;;;;;;;14.23;12.73;;;;;;;25.91;50.30;100088.69;5010217;28;100985;-74
2022/06/26 04:58:44;;;;;;;18.52;14.48;;;;;;;25.82;49.39;100066.28;5016529;28;96842;-74
2022/06/26 05:01:10;;;;;;;14.23;13.02;;;;;;;25.99;48.81;100087.91;5009952;28;96922;-74
2022/06/26 05:04:03;;;;;;;16.38;13.73;;;;;;;26.19;48.80;100074.09;5018675;28;101359;-74
2022/06/26 05:06:54;;;;;;;14.82;13.50;;;;;;;26.34;47.96;100100.41;4990656;28;97246;-74
2022/06/26 05:09:24;;;;;;;14.80;12.30;;;;;;;26.37;47.60;100082.09;5015272;28;97093;-74
2022/06/26 05:11:50;;;;;;;14.55;13.20;;;;;;;26.63;47.82;100097.41;5014987;28;96930;-74
2022/06/26 05:14:16;;;;;;;14.65;13.13;;;;;;;26.82;47.46;100099.84;4997934;28;101521;-74
2022/06/26 05:16:57;;;;;;;14.43;13.02;;;;;;;26.72;47.33;100071.34;5031171;28;100944;-74
2022/06/26 05:19:26;;;;;;;14.20;12.90;;;;;;;26.89;46.91;100077.66;4999653;28;96616;-74
2022/06/26 05:21:52;;;;;;;14.27;13.07;;;;;;;27.11;46.55;100095.88;5030657;28;97005;-74
2022/06/26 05:24:20;;;;;;;14.65;12.38;;;;;;;27.38;46.86;100110.13;4986039;28;101909;-74
2022/06/26 05:26:47;;;;;;;13.77;12.60;;;;;;;27.56;46.51;100099.19;5014814;28;101289;-74
2022/06/26 05:29:12;;;;;;;14.13;12.68;;;;;;;27.73;46.26;100115.19;5014978;28;97001;-74
2022/06/26 05:31:38;;;;;;;13.63;12.25;;;;;;;27.85;45.41;100091.47;4998789;28;98898;-75
2022/06/26 05:34:04;;;;;;;13.90;12.70;;;;;;;28.09;45.58;100105.94;5014100;28;101404;-74
2022/06/26 05:36:31;;;;;;;13.73;12.50;;;;;;;28.27;45.04;100109.25;5015322;28;98349;-74
2022/06/26 05:38:58;;;;;;;12.95;11.63;;;;;;;28.50;44.71;100112.09;5001504;28;96819;-74
2022/06/26 05:41:26;;;;;;;14.60;13.27;;;;;;;28.72;44.52;100107.81;5019191;28;96990;-74
2022/06/26 05:43:52;;;;;;;14.68;13.32;;;;;;;29.04;43.57;100117.66;5018119;28;98056;-75
2022/06/26 05:46:17;;;;;;;34.15;30.98;;;;;;;29.26;43.31;100107.91;5017957;28;101686;-77
2022/06/26 05:48:52;;;;;;;21.10;19.27;;;;;;;29.52;42.84;100096.75;5032019;28;96699;-76
2022/06/26 05:51:29;;;;;;;13.85;12.65;;;;;;;30.19;41.56;100111.41;5007191;28;96919;-76
2022/06/26 05:54:33;;;;;;;16.17;12.10;;;;;;;30.94;40.63;100115.84;5001079;28;97891;-77
2022/06/26 05:57:16;;;;;;;12.98;11.70;;;;;;;31.80;38.87;100116.78;5034786;28;101815;-77
2022/06/26 05:59:53;;;;;;;13.23;11.82;;;;;;;32.43;37.71;100124.16;5033843;28;96703;-77
2022/06/26 06:02:47;;;;;;;13.07;12.05;;;;;;;33.34;36.38;100115.84;5021504;28;98644;-77
2022/06/26 06:05:17;;;;;;;13.65;12.35;;;;;;;34.17;35.61;100118.25;5002003;28;101978;-77
2022/06/26 06:07:43;;;;;;;13.63;12.15;;;;;;;34.85;34.46;100124.19;5014038;28;101127;-77
2022/06/26 06:10:10;;;;;;;18.42;13.32;;;;;;;35.97;33.21;100129.19;4997971;28;96811;-77
2022/06/26 06:12:37;;;;;;;13.15;12.13;;;;;;;36.62;32.42;100113.25;5018439;28;98369;-77
2022/06/26 06:15:04;;;;;;;12.60;11.50;;;;;;;37.42;31.09;100116.88;5016470;28;100636;-77
2022/06/26 06:17:36;;;;;;;;;;;;;;;38.02;30.29;100123.13;5035181;28;101815;-77
2022/06/26 06:20:08;;;;;;;13.00;11.93;;;;;;;38.77;29.40;100117.91;5017764;28;96820;-77
2022/06/26 06:22:44;;;;;;;12.98;11.88;;;;;;;38.90;29.06;100118.50;5034933;28;97522;-78
2022/06/26 06:25:11;;;;;;;12.98;11.93;;;;;;;39.39;28.31;100113.44;5017384;28;101508;-77
2022/06/26 06:27:37;;;;;;;13.23;12.20;;;;;;;39.93;27.84;100129.47;5017453;28;100499;-78
2022/06/26 06:30:07;;;;;;;13.43;12.10;;;;;;;40.42;27.31;100118.69;5017693;28;96677;-78
2022/06/26 06:32:33;;;;;;;13.60;12.40;;;;;;;40.71;26.69;100127.63;5017865;28;96857;-77
2022/06/26 06:34:59;;;;;;;13.50;12.27;;;;;;;40.72;26.22;100117.44;5016634;28;101187;-77
2022/06/26 06:37:25;;;;;;;12.68;11.77;;;;;;;40.72;26.32;100109.19;5017114;28;101066;-78
2022/06/26 06:39:51;;;;;;;13.07;11.90;;;;;;;40.87;26.04;100123.16;5017224;28;96627;-78
2022/06/26 06:42:17;;;;;;;12.52;11.60;;;;;;;41.80;25.75;100113.91;5001133;28;96889;-78
2022/06/26 06:44:42;;;;;;;14.23;12.88;;;;;;;42.46;25.24;100122.66;5017172;28;101260;-78
2022/06/26 06:47:34;;;;;;;12.68;11.77;;;;;;;43.04;23.93;100119.06;5033483;27;101380;-78
2022/06/26 06:50:17;;;;;;;12.07;11.18;;;;;;;43.28;23.53;100109.19;5017067;28;96712;-78
2022/06/26 06:52:43;;;;;;;13.05;12.07;;;;;;;43.28;23.79;100113.88;5017167;28;96839;-78
2022/06/26 06:55:09;;;;;;;11.48;10.77;;;;;;;43.58;23.10;100107.59;4999978;28;100719;-78
2022/06/26 06:57:35;;;;;;;13.13;12.23;;;;;;;43.44;23.05;100123.03;5017026;28;101567;-78
2022/06/26 07:00:01;;;;;;;14.15;12.98;;;;;;;42.51;23.74;100121.88;5016768;28;96668;-78
2022/06/26 07:02:26;;;;;;;14.18;12.73;;;;;;;42.39;23.80;100118.50;5017298;28;97005;-78
2022/06/26 07:04:52;;;;;;;12.15;11.32;;;;;;;42.50;24.01;100109.16;5015906;28;101282;-79
2022/06/26 07:07:18;;;;;;;12.63;11.70;;;;;;;43.45;22.93;100114.44;4999162;28;101522;-78
2022/06/26 07:09:44;;;;;;;12.95;12.00;;;;;;;43.11;22.90;100114.94;4980481;28;96745;-78
2022/06/26 07:12:10;;;;;;;13.50;12.43;;;;;;;42.65;23.51;100116.69;5015766;28;96860;-78
2022/06/26 07:14:36;;;;;;;13.57;12.57;;;;;;;42.35;23.10;100089.78;5012447;28;101567;-78
2022/06/26 07:17:01;;;;;;;13.27;12.27;;;;;;;42.84;22.79;100104.09;5015890;28;101219;-78
2022/06/26 07:19:27;;;;;;;13.38;12.18;;;;;;;42.73;23.07;100105.16;5000443;28;96831;-78
2022/06/26 07:21:57;;;;;;;12.57;11.77;;;;;;;43.56;22.68;100107.88;5001023;28;96937;-78
2022/06/26 07:24:23;;;;;;;14.35;12.80;;;;;;;43.26;22.49;100094.00;5000109;28;101375;-78
2022/06/26 07:27:27;;;;;;;14.05;12.85;;;;;;;42.24;22.77;100105.41;5011712;28;96961;-78
2022/06/26 07:29:52;;;;;;;12.65;11.70;;;;;;;42.68;22.85;100105.13;4999778;28;96672;-78
2022/06/26 07:32:18;;;;;;;14.63;13.40;;;;;;;44.34;21.49;100106.72;5016943;28;96970;-78
2022/06/26 07:34:43;;;;;;;13.82;12.63;;;;;;;43.77;22.05;100100.38;5016308;28;100871;-78
2022/06/26 07:37:09;;;;;;;13.93;12.88;;;;;;;43.49;22.06;100110.06;5024765;28;100956;-78
2022/06/26 07:39:35;;;;;;;13.93;12.95;;;;;;;44.27;21.92;100108.91;5016275;28;96689;-78
2022/06/26 07:42:01;;;;;;;15.10;14.00;;;;;;;44.54;21.36;100080.91;5009100;28;96914;-78
2022/06/26 07:44:30;;;;;;;14.57;13.23;;;;;;;44.09;21.38;100104.78;5016673;28;101427;-78
2022/06/26 07:46:57;;;;;;;15.10;14.00;;;;;;;43.17;22.02;100100.06;5015772;28;101314;-78
2022/06/26 07:49:42;;;;;;;15.00;13.73;;;;;;;43.76;21.99;100109.78;5032665;28;96798;-78
2022/06/26 07:52:09;;;;;;;12.88;11.98;;;;;;;43.31;21.41;100111.41;5021573;28;97908;-78
2022/06/26 07:54:34;;;;;;;14.27;13.27;;;;;;;42.75;22.35;100107.66;5031012;28;103223;-78
2022/06/26 07:57:01;;;;;;;13.60;12.60;;;;;;;43.87;21.84;100115.28;5016044;28;101203;-78
2022/06/26 07:59:26;;;;;;;13.60;12.43;;;;;;;44.54;21.46;100091.13;5032421;27;96864;-78
2022/06/26 08:01:52;;;;;;;14.65;13.65;;;;;;;45.59;20.34;100090.81;5015842;28;96919;-78
2022/06/26 08:04:17;;;;;;;13.73;12.55;;;;;;;43.67;21.33;100108.69;5012105;28;101153;-78
2022/06/26 08:06:43;;;;;;;13.82;12.73;;;;;;;45.17;20.78;100102.47;5032725;28;97537;-78
2022/06/26 08:09:09;;;;;;;14.82;13.73;;;;;;;44.16;21.70;100110.03;4999255;28;96680;-78
2022/06/26 08:11:35;;;;;;;15.15;13.75;;;;;;;44.45;21.69;100102.81;5032985;28;96878;-79
2022/06/26 08:14:00;;;;;;;15.13;14.02;;;;;;;44.98;20.82;100116.13;5031996;28;97452;-78
2022/06/26 08:16:26;;;;;;;14.15;13.25;;;;;;;45.19;20.73;100100.25;5032834;28;97397;-78
2022/06/26 08:18:51;;;;;;;13.77;12.77;;;;;;;45.81;19.80;100098.63;5015837;28;96754;-80
2022/06/26 08:24:01;;;;;;;14.55;13.43;;;;;;;45.29;20.57;100100.16;5031887;28;101288;-78
2022/06/26 08:26:27;;;;;;;13.80;12.80;;;;;;;45.11;20.52;100100.81;5012129;28;100851;-78
2022/06/26 08:28:52;;;;;;;14.07;12.80;;;;;;;44.93;20.50;100107.84;5028621;28;96814;-79
2022/06/26 08:31:18;;;;;;;14.15;12.98;;;;;;;44.91;20.18;100097.06;5015736;28;97062;-78
2022/06/26 08:33:44;;;;;;;14.23;13.18;;;;;;;44.25;20.11;100109.19;4998656;28;101015;-78
2022/06/26 08:36:09;;;;;;;12.80;11.93;;;;;;;44.00;20.50;100101.78;4998350;28;100930;-78
2022/06/26 08:38:35;;;;;;;13.27;12.38;;;;;;;44.17;20.58;100112.53;5032910;28;96708;-78
2022/06/26 08:41:00;;;;;;;12.90;12.00;;;;;;;43.97;20.03;100095.97;4998282;28;97078;-78
2022/06/26 08:43:26;;;;;;;13.05;12.15;;;;;;;43.05;20.87;100099.44;5015320;28;101243;-78
2022/06/26 08:45:53;;;;;;;12.70;11.63;;;;;;;43.57;20.51;100097.63;5015589;28;101028;-78
2022/06/26 08:48:20;;;;;;;12.52;11.50;;;;;;;44.40;20.13;100097.28;5015996;28;96660;-78
2022/06/26 08:50:46;;;;;;;11.68;10.82;;;;;;;44.35;20.08;100089.00;5015786;28;96864;-78
2022/06/26 08:53:14;;;;;;;11.07;10.38;;;;;;;43.97;19.28;100099.56;5014408;28;101607;-78
2022/06/26 08:55:40;;;;;;;12.02;10.75;;;;;;;43.36;19.45;100083.78;5015454;28;97526;-78
2022/06/26 08:58:06;;;;;;;11.70;10.75;;;;;;;43.40;19.70;100095.97;5014908;28;96920;-78
2022/06/26 09:00:31;;;;;;;11.90;10.20;;;;;;;42.61;20.44;100102.59;4998738;28;97034;-78
2022/06/26 09:02:57;;;;;;;12.07;10.70;;;;;;;41.33;21.95;100076.03;5014818;28;97581;-78
2022/06/26 09:05:22;;;;;;;11.23;10.27;;;;;;;40.76;22.87;100093.84;5015277;28;97338;-78
2022/06/26 09:07:49;;;;;;;10.88;9.77;;;;;;;40.74;22.95;100087.78;5015617;28;96792;-78
2022/06/26 09:10:17;;;;;;;11.32;10.40;;;;;;;40.02;23.32;100084.00;5032177;27;97841;-78
2022/06/26 09:12:50;;;;;;;11.18;10.30;;;;;;;39.99;23.38;100097.41;5018988;28;98226;-78
2022/06/26 09:15:17;;;;;;;11.35;10.40;;;;;;;39.23;24.20;100095.00;5018136;28;97386;-78
2022/06/26 09:18:02;;;;;;;9.95;9.25;;;;;;;38.89;24.73;100100.38;5035117;28;96733;-78
2022/06/26 09:20:30;;;;;;;10.63;9.50;;;;;;;38.59;24.92;100073.16;5018643;28;96778;-77
2022/06/26 09:22:57;;;;;;;11.30;9.90;;;;;;;38.33;24.69;100096.41;5035351;28;98015;-78
2022/06/26 09:25:43;;;;;;;9.98;9.07;;;;;;;38.63;25.23;100095.41;5035226;28;97439;-78
2022/06/26 09:28:20;;;;;;;11.15;10.15;;;;;;;38.47;24.37;100078.66;5036643;28;96764;-77
2022/06/26 09:30:50;;;;;;;9.60;8.90;;;;;;;38.25;23.99;100094.88;5035288;28;96634;-78
2022/06/26 09:33:20;;;;;;;10.10;9.20;;;;;;;38.06;24.67;100087.84;5035130;28;97660;-77
2022/06/26 09:35:46;;;;;;;9.20;8.60;;;;;;;38.17;24.33;100083.44;5018397;28;100786;-77
2022/06/26 09:38:16;;;;;;;9.93;9.02;;;;;;;37.49;24.71;100071.09;5018483;28;96602;-78
2022/06/26 09:40:56;;;;;;;10.02;9.23;;;;;;;36.98;25.17;100061.50;5016872;28;96815;-77
2022/06/26 09:43:35;;;;;;;8.80;8.20;;;;;;;37.21;25.16;100085.38;5000905;28;101396;-77
2022/06/26 09:46:03;;;;;;;10.07;7.87;;;;;;;37.33;24.37;100094.47;5017653;28;100975;-77
2022/06/26 09:48:29;;;;;;;9.20;8.45;;;;;;;36.99;24.31;100079.56;5035424;28;96860;-77
2022/06/26 09:50:55;;;;;;;8.73;8.18;;;;;;;36.98;24.30;100092.41;5035469;28;96894;-77
2022/06/26 09:53:22;;;;;;;9.40;8.45;;;;;;;36.66;23.22;100094.50;5034808;28;98104;-77
2022/06/26 09:55:48;;;;;;;9.30;8.63;;;;;;;36.43;23.80;100085.06;5034916;28;97335;-77
2022/06/26 09:58:15;;;;;;;8.75;8.10;;;;;;;36.10;24.43;100096.34;5004202;28;96680;-77
2022/06/26 10:00:41;;;;;;;9.27;8.30;;;;;;;36.08;25.04;100089.44;5001544;28;96855;-77
2022/06/26 10:08:43;;;;;;;8.35;7.55;;;;;;;35.47;25.90;100102.69;5020018;28;96871;-77
2022/06/26 10:11:09;;;;;;;9.63;8.73;;;;;;;34.74;26.27;100078.53;5017867;28;96866;-77
2022/06/26 10:13:38;;;;;;;8.93;8.18;;;;;;;34.83;26.94;100099.03;4999650;28;100165;-77
2022/06/26 10:16:37;;;;;;;11.75;8.95;;;;;;;34.71;27.55;100100.75;5017457;28;101372;-77
2022/06/26 10:19:18;;;;;;;11.00;9.45;;;;;;;34.28;28.95;100082.19;5034657;28;96814;-77
2022/06/26 10:21:46;;;;;;;12.60;11.50;;;;;;;34.40;28.50;100096.81;5001251;27;96874;-78
2022/06/26 10:24:11;;;;;;;9.73;9.05;;;;;;;34.23;29.04;100098.31;5033430;28;97485;-77
2022/06/26 10:26:37;;;;;;;10.70;9.18;;;;;;;34.08;28.95;100095.84;5017812;28;101033;-77
2022/06/26 10:29:07;;;;;;;9.75;9.05;;;;;;;33.83;29.05;100100.22;5017235;28;96670;-77
2022/06/26 10:31:42;;;;;;;11.77;10.77;;;;;;;33.79;29.54;100103.34;5017930;28;96838;-77
2022/06/26 10:34:24;;;;;;;12.15;11.00;;;;;;;33.66;29.79;100095.19;5033031;28;101662;-77
2022/06/26 10:37:00;;;;;;;10.55;9.50;;;;;;;33.61;29.89;100094.16;5034433;28;97577;-77
2022/06/26 10:39:45;;;;;;;12.68;11.40;;;;;;;33.55;29.76;100085.78;5033968;28;96822;-77
2022/06/26 10:45:20;;;;;;;15.35;11.43;;;;;;;33.46;30.11;100103.31;5019733;28;100978;-77
2022/06/26 10:47:54;;;;;;;16.23;12.93;;;;;;;33.45;29.89;100085.28;5000423;28;101444;-77
2022/06/26 10:50:41;;;;;;;10.00;9.30;;;;;;;33.23;30.36;100084.66;5034399;28;96654;-76
2022/06/26 10:53:30;;;;;;;9.35;8.45;;;;;;;33.14;30.51;100102.19;5017227;28;96909;-77
2022/06/26 10:56:01;;;;;;;9.00;8.30;;;;;;;33.04;30.50;100077.25;5017306;28;98613;-77
2022/06/26 10:58:30;;;;;;;9.68;8.88;;;;;;;33.19;30.91;100096.97;4999715;28;100849;-77
2022/06/26 11:00:59;;;;;;;10.35;9.55;;;;;;;33.19;31.39;100091.53;5016507;28;96688;-77
2022/06/26 11:03:25;;;;;;;13.32;9.23;;;;;;;33.16;31.10;100093.81;5016865;28;96827;-77
2022/06/26 11:06:02;;;;;;;9.98;9.13;;;;;;;33.18;30.99;100092.56;5017029;28;98252;-77
2022/06/26 11:08:30;;;;;;;8.98;8.38;;;;;;;33.33;30.21;100098.66;5016524;28;97404;-77
2022/06/26 11:11:20;;;;;;;9.40;8.60;;;;;;;33.02;30.35;100096.50;5033768;28;96790;-77
2022/06/26 11:13:56;;;;;;;10.27;9.48;;;;;;;32.86;30.67;100084.06;5016821;28;96755;-78
2022/06/26 11:16:33;;;;;;;10.05;9.00;;;;;;;32.75;30.79;100053.94;5016221;28;101973;-77
2022/06/26 11:19:03;;;;;;;9.68;8.85;;;;;;;32.97;30.97;100087.25;5000169;28;100455;-77
2022/06/26 11:21:29;;;;;;;9.10;8.30;;;;;;;32.74;31.02;100060.41;5033357;28;96643;-77
2022/06/26 11:23:54;;;;;;;8.65;7.95;;;;;;;32.73;31.32;100069.63;5033786;28;96914;-77
2022/06/26 11:26:21;;;;;;;9.65;8.80;;;;;;;32.77;30.95;100077.16;5033132;28;97908;-77
2022/06/26 11:28:54;;;;;;;8.75;8.02;;;;;;;32.74;31.25;100074.00;4997525;28;100708;-77
2022/06/26 11:31:22;;;;;;;9.57;7.78;;;;;;;32.91;30.11;100067.16;5016401;28;96720;-77